Flugplatz Wunstorf Airport

Bericht für ETNW

vom 15.08. um 07:20 UTC

Wind 4 kt aus 260°

Sichtweite 10 km oder mehr

gering bewölkt in 2100 ft

aufgebrochene Bewölkung in 4000 ft

Temperatur 21.0°C

Taupunkt 19.0°C

Luftfeuchtigkeit 88%

Luftdruck 1015 hPa

ETNW 150720Z 26004KT 9999 FEW021 BKN040 21/19 Q1015 BLU

Prognose für ETNW

vom 15.08. um 04:00 UTC

Zwischen 05:00 UTC und 05:00 UTC

Wind 5 kt aus 280°

Sichtweite 10 km oder mehr

keine signifikanten Wettererscheinungen

aufgelockert bewölkt in 3000 ft

aufgebrochene Bewölkung in 10000 ft


Zwischen 12:00 UTC und 18:00 UTC mit einer Wahrscheinlichkeit von 30%

variable Windrichtung mit 15 kt in Böen 30 kt

Sichtweite 4000 m

Code: TSRA

aufgebrochene Bewölkung in 1500 ft

aufgebrochene Bewölkung in 4000 ft


Am 16.08. zwischen 00:00 UTC und 05:00 UTC zeitweise

Wind 3 kt aus 300°

Sichtweite 3000 m

feuchter Dunst

gering bewölkt in 2000 ft

aufgelockert bewölkt in 10000 ft


Am 16.08. zwischen 02:00 UTC und 05:00 UTC mit einer Wahrscheinlichkeit von 30%

variable Windrichtung mit 2 kt

Sichtweite 500 m

Nebel

TAF ETNW 150400Z 1505/1605 28005KT 9999 NSW SCT030 BKN100 PROB30 1512/1518 VRB15G30KT 4000 TSRA BKN015 BKN040CB TEMPO 1600/1605 30003KT 3000 BR FEW020 SCT100 PROB30 1602/1605 VRB02KT 0500 FG VV001 BY ETGL
Impressum